createdAt,value
2023-03-06T00:07:00.407Z,96898.11
2023-03-06T00:09:28.337Z,96894.40
2023-03-06T00:11:56.338Z,96892.33
2023-03-06T00:14:24.243Z,96896.52
2023-03-06T00:16:58.730Z,96895.77
2023-03-06T00:19:27.629Z,96896.65
2023-03-06T00:21:55.509Z,96896.02
2023-03-06T00:24:23.498Z,96891.47
2023-03-06T00:26:51.497Z,96890.02
2023-03-06T00:29:19.413Z,96894.64
2023-03-06T00:31:48.122Z,96894.20
2023-03-06T00:34:16.235Z,96894.20
2023-03-06T00:36:44.325Z,96895.83
2023-03-06T00:39:12.247Z,96894.06
2023-03-06T00:41:40.261Z,96896.44
2023-03-06T00:44:08.440Z,96894.20
2023-03-06T00:46:37.024Z,96892.41
2023-03-06T00:49:04.964Z,96889.66
2023-03-06T00:51:33.126Z,96886.36
2023-03-06T00:54:01.550Z,96887.06
2023-03-06T00:56:30.247Z,96884.65
2023-03-06T01:03:44.795Z,96885.66
2023-03-06T01:06:12.769Z,96885.05
2023-03-06T01:08:40.713Z,96884.64
2023-03-06T01:11:08.817Z,96887.38
2023-03-06T01:13:36.858Z,96885.55
2023-03-06T01:16:08.074Z,96889.02
2023-03-06T01:18:37.205Z,96886.65
2023-03-06T01:21:05.667Z,96881.92
2023-03-06T01:23:33.662Z,96880.19
2023-03-06T01:26:02.282Z,96882.71
2023-03-06T01:28:31.802Z,96884.73
2023-03-06T01:31:04.976Z,96888.73
2023-03-06T01:33:33.668Z,96890.33
2023-03-06T01:36:11.723Z,96891.63
2023-03-06T01:38:40.617Z,96890.03
2023-03-06T01:41:10.961Z,96885.84
2023-03-06T01:43:41.780Z,96883.00
2023-03-06T01:46:30.866Z,96881.79
2023-03-06T01:50:16.095Z,96880.38
2023-03-06T01:52:50.512Z,96884.73
2023-03-06T01:59:28.995Z,96882.94
2023-03-06T02:02:01.881Z,96880.94
2023-03-06T02:04:30.322Z,96881.02
2023-03-06T02:07:06.081Z,96880.23
2023-03-06T02:09:37.732Z,96875.58
2023-03-06T02:12:13.575Z,96868.69
2023-03-06T02:14:42.800Z,96866.77
2023-03-06T02:17:14.328Z,96863.79
2023-03-06T02:19:54.114Z,96868.52
2023-03-06T02:22:25.555Z,96865.57
2023-03-06T02:25:05.179Z,96862.25
2023-03-06T02:27:34.945Z,96856.45
2023-03-06T02:30:08.041Z,96855.51
2023-03-06T02:32:36.322Z,96850.23
2023-03-06T02:35:04.882Z,96852.94
2023-03-06T02:37:33.096Z,96856.89
2023-03-06T02:40:29.648Z,96859.89
2023-03-06T02:42:58.909Z,96855.64
2023-03-06T02:45:38.761Z,96851.25
2023-03-06T02:48:07.812Z,96844.46
2023-03-06T02:50:35.837Z,96845.42
2023-03-06T02:53:04.380Z,96842.79
2023-03-06T02:55:33.183Z,96841.77
2023-03-06T02:58:02.546Z,96839.72
2023-03-06T03:00:32.131Z,96840.11
2023-03-06T03:03:29.170Z,96840.35
2023-03-06T03:06:00.269Z,96843.38
2023-03-06T03:08:32.406Z,96850.16
2023-03-06T03:11:06.427Z,96851.79
2023-03-06T03:13:39.670Z,96850.30
2023-03-06T03:16:14.281Z,96848.16
2023-03-06T03:18:48.271Z,96845.70
2023-03-06T03:21:18.779Z,96843.14
2023-03-06T03:23:48.704Z,96844.65
2023-03-06T03:26:19.540Z,96841.59
2023-03-06T03:28:53.000Z,96837.90
2023-03-06T03:31:48.659Z,96835.75
2023-03-06T03:34:17.176Z,96835.92
2023-03-06T03:36:45.950Z,96835.54
2023-03-06T03:39:14.232Z,96835.23
2023-03-06T03:41:42.755Z,96829.63
2023-03-06T03:44:11.184Z,96827.34
2023-03-06T03:46:39.712Z,96826.44
2023-03-06T03:49:11.765Z,96824.04
2023-03-06T03:51:39.871Z,96826.17
2023-03-06T03:58:53.257Z,96817.11
2023-03-06T04:01:22.367Z,96811.09
2023-03-06T04:03:51.196Z,96807.92
2023-03-06T04:06:19.995Z,96812.58
2023-03-06T04:08:48.398Z,96808.91
2023-03-06T04:11:17.258Z,96809.56
2023-03-06T04:13:45.382Z,96809.05
2023-03-06T04:21:05.963Z,96808.81
2023-03-06T04:23:34.639Z,96807.23
2023-03-06T04:26:03.840Z,96804.23
2023-03-06T04:28:31.999Z,96804.42
2023-03-06T04:31:00.733Z,96803.91
2023-03-06T04:38:15.053Z,96797.07
2023-03-06T04:40:44.890Z,96799.65
2023-03-06T04:43:13.276Z,96798.77
2023-03-06T04:45:41.522Z,96796.95
2023-03-06T04:48:14.350Z,96795.84
2023-03-06T04:55:29.729Z,96795.64
2023-03-06T04:57:59.125Z,96790.26
2023-03-06T05:00:34.483Z,96792.79
2023-03-06T05:03:02.758Z,96790.19
2023-03-06T05:05:30.927Z,96784.08
2023-03-06T05:07:59.160Z,96789.86
2023-03-06T05:10:27.153Z,96788.47
2023-03-06T05:12:55.049Z,96787.09
2023-03-06T05:15:23.680Z,96788.16
2023-03-06T05:22:02.202Z,96789.88
2023-03-06T05:24:30.986Z,96792.96
2023-03-06T05:26:59.312Z,96791.65
2023-03-06T05:29:47.006Z,96791.64
2023-03-06T05:32:17.142Z,96786.52
2023-03-06T05:34:48.443Z,96780.98
2023-03-06T05:37:16.403Z,96779.90
2023-03-06T05:39:44.428Z,96777.67
2023-03-06T05:42:12.390Z,96777.56
2023-03-06T05:44:42.008Z,96777.98
2023-03-06T05:47:11.420Z,96780.30
2023-03-06T05:49:40.286Z,96779.49
2023-03-06T05:52:08.799Z,96781.58
2023-03-06T05:54:37.477Z,96784.90
2023-03-06T05:57:06.259Z,96781.23
2023-03-06T05:59:34.510Z,96780.91
2023-03-06T06:02:04.080Z,96775.27
2023-03-06T06:04:32.428Z,96770.95
2023-03-06T06:07:01.853Z,96765.30
2023-03-06T06:09:30.551Z,96767.68
2023-03-06T06:12:01.830Z,96769.89
2023-03-06T06:14:33.806Z,96770.60
2023-03-06T06:17:07.784Z,96776.59
2023-03-06T06:19:36.032Z,96774.31
2023-03-06T06:22:04.926Z,96774.81
2023-03-06T06:24:33.162Z,96772.20
2023-03-06T06:27:03.725Z,96778.98
2023-03-06T06:29:32.678Z,96770.96
2023-03-06T06:32:01.755Z,96768.25
2023-03-06T06:34:30.754Z,96772.05
2023-03-06T06:37:00.366Z,96774.39
2023-03-06T06:39:30.819Z,96784.86
2023-03-06T06:42:15.444Z,96779.58
2023-03-06T06:44:51.660Z,96776.75
2023-03-06T06:47:24.110Z,96775.46
2023-03-06T06:49:56.838Z,96777.13
2023-03-06T06:52:29.213Z,96776.23
2023-03-06T06:54:58.146Z,96779.27
2023-03-06T06:57:26.661Z,96775.02
2023-03-06T06:59:54.858Z,96779.15
2023-03-06T07:02:23.480Z,96774.84
2023-03-06T07:05:43.416Z,96781.94
2023-03-06T07:08:11.644Z,96786.50
2023-03-06T07:10:40.178Z,96783.64
2023-03-06T07:13:09.114Z,96785.11
2023-03-06T07:15:38.502Z,96783.45
2023-03-06T07:18:06.731Z,96781.80
2023-03-06T07:20:34.972Z,96785.82
2023-03-06T07:23:03.278Z,96784.91
2023-03-06T07:25:33.481Z,96786.83
2023-03-06T07:28:01.724Z,96782.96
2023-03-06T07:30:30.349Z,96785.02
2023-03-06T07:33:26.976Z,96790.96
2023-03-06T07:35:55.157Z,96792.39
2023-03-06T07:38:23.342Z,96794.26
2023-03-06T07:40:57.461Z,96794.42
2023-03-06T07:43:26.254Z,96795.50
2023-03-06T07:46:01.214Z,96797.48
2023-03-06T07:48:29.472Z,96797.95
2023-03-06T07:50:58.051Z,96796.27
2023-03-06T07:53:26.861Z,96794.27
2023-03-06T07:55:55.986Z,96789.23
2023-03-06T07:58:24.906Z,96787.98
2023-03-06T08:00:54.125Z,96790.44
2023-03-06T08:03:23.427Z,96795.34
2023-03-06T08:05:51.543Z,96800.33
2023-03-06T08:08:19.741Z,96799.91
2023-03-06T08:10:49.493Z,96797.91
2023-03-06T08:17:29.432Z,96801.15
2023-03-06T08:19:58.325Z,96801.48
2023-03-06T08:22:27.262Z,96801.14
2023-03-06T08:24:56.470Z,96796.89
2023-03-06T08:27:24.643Z,96796.20
2023-03-06T08:29:54.034Z,96796.92
2023-03-06T08:32:22.763Z,96800.48
2023-03-06T08:34:51.801Z,96794.54
2023-03-06T08:37:19.987Z,96780.52
2023-03-06T08:39:48.311Z,96803.08
2023-03-06T08:42:16.842Z,96802.31
2023-03-06T08:44:45.576Z,96800.91
2023-03-06T08:47:13.975Z,96804.66
2023-03-06T08:49:42.104Z,96802.71
2023-03-06T08:52:11.231Z,96803.68
2023-03-06T08:54:39.834Z,96806.88
2023-03-06T08:57:09.350Z,96809.05
2023-03-06T08:59:38.218Z,96814.13
2023-03-06T09:02:07.831Z,96809.15
2023-03-06T09:04:36.435Z,96807.99
2023-03-06T09:07:04.797Z,96812.42
2023-03-06T09:09:33.784Z,96810.20
2023-03-06T09:12:02.656Z,96816.45
2023-03-06T09:14:31.582Z,96817.46
2023-03-06T09:16:59.880Z,96816.29
2023-03-06T09:19:28.660Z,96813.09
2023-03-06T09:22:01.190Z,96815.09
2023-03-06T09:24:30.017Z,96819.98
2023-03-06T09:26:58.775Z,96815.07
2023-03-06T09:29:26.903Z,96813.83
2023-03-06T09:31:55.486Z,96816.98
2023-03-06T09:34:23.776Z,96817.92
2023-03-06T09:36:57.103Z,96814.77
2023-03-06T09:39:27.347Z,96813.98
2023-03-06T09:41:57.826Z,96810.80
2023-03-06T09:44:31.144Z,96807.30
2023-03-06T09:47:21.163Z,96801.98
2023-03-06T09:49:55.676Z,96802.35
2023-03-06T09:52:29.616Z,96801.33
2023-03-06T09:55:09.326Z,96797.20
2023-03-06T09:57:42.710Z,96792.83
2023-03-06T10:00:35.937Z,96785.90
2023-03-06T10:04:23.180Z,96794.52
2023-03-06T10:06:53.642Z,96791.83
2023-03-06T10:09:43.766Z,96790.76
2023-03-06T10:12:26.157Z,96786.21
2023-03-06T10:15:13.450Z,96786.14
2023-03-06T10:17:43.553Z,96779.74
2023-03-06T10:20:24.040Z,96779.63
2023-03-06T10:23:05.149Z,96780.24
2023-03-06T10:25:50.160Z,96771.85
2023-03-06T10:28:29.659Z,96772.98
2023-03-06T10:31:20.043Z,96769.63
2023-03-06T10:38:31.964Z,96762.15
2023-03-06T10:41:13.122Z,96758.15
2023-03-06T10:43:43.946Z,96757.84
2023-03-06T10:46:51.294Z,96751.52
2023-03-06T10:49:35.103Z,96753.35
2023-03-06T10:54:49.390Z,96741.19
2023-03-06T11:02:37.496Z,96736.72
2023-03-06T11:05:19.052Z,96725.70
2023-03-06T11:08:25.342Z,96725.40
2023-03-06T11:11:03.042Z,96734.60
2023-03-06T11:13:41.181Z,96736.55
2023-03-06T11:16:32.831Z,96726.02
2023-03-06T11:19:10.507Z,96724.16
2023-03-06T11:21:40.564Z,96723.71
2023-03-06T11:24:21.860Z,96727.65
2023-03-06T11:27:09.258Z,96731.22
2023-03-06T11:29:43.549Z,96720.13
2023-03-06T11:32:21.161Z,96718.61
2023-03-06T11:35:06.082Z,96713.10
2023-03-06T11:37:46.618Z,96709.45
2023-03-06T11:40:24.920Z,96699.91
2023-03-06T11:48:03.951Z,96695.64
2023-03-06T11:50:39.926Z,96687.33
2023-03-06T11:53:15.963Z,96685.36
2023-03-06T11:56:01.305Z,96688.14
2023-03-06T11:58:35.297Z,96679.92
2023-03-06T12:01:13.995Z,96679.71
2023-03-06T12:08:19.906Z,96665.71
2023-03-06T12:10:57.798Z,96663.21
2023-03-06T12:13:56.786Z,96663.67
2023-03-06T12:17:05.903Z,96659.67
2023-03-06T12:19:46.664Z,96661.55
2023-03-06T12:22:33.532Z,96657.98
2023-03-06T12:25:31.159Z,96650.45
2023-03-06T12:32:35.373Z,96637.16
2023-03-06T12:35:13.408Z,96635.16
2023-03-06T12:37:41.673Z,96630.00
2023-03-06T12:40:40.365Z,96625.30
2023-03-06T12:43:20.983Z,96626.58
2023-03-06T12:46:28.580Z,96628.08
2023-03-06T12:49:32.557Z,96622.79
2023-03-06T12:52:04.697Z,96620.23
2023-03-06T12:54:37.858Z,96620.33
2023-03-06T12:57:08.736Z,96617.95
2023-03-06T12:59:38.102Z,96617.34
2023-03-06T13:02:37.743Z,96617.92
2023-03-06T13:05:18.783Z,96612.02
2023-03-06T13:08:18.503Z,96609.23
2023-03-06T13:11:06.814Z,96609.96
2023-03-06T13:13:44.004Z,96607.85
2023-03-06T13:16:32.361Z,96612.40
2023-03-06T13:19:00.693Z,96617.96
2023-03-06T13:21:50.264Z,96615.39
2023-03-06T13:24:27.861Z,96620.79
2023-03-06T13:27:10.510Z,96618.52
2023-03-06T13:29:38.731Z,96619.58
2023-03-06T13:32:29.374Z,96626.66
2023-03-06T13:34:57.620Z,96622.49
2023-03-06T13:37:25.587Z,96625.88
2023-03-06T13:39:59.841Z,96621.85
2023-03-06T13:42:28.537Z,96628.64
2023-03-06T13:45:15.443Z,96627.80
2023-03-06T13:52:42.779Z,96632.38
2023-03-06T13:55:31.739Z,96624.05
2023-03-06T13:58:18.043Z,96611.92
2023-03-06T14:01:21.401Z,96608.65
2023-03-06T14:04:11.137Z,96607.45
2023-03-06T14:06:40.777Z,96608.29
2023-03-06T14:09:45.832Z,96610.36
2023-03-06T14:12:26.660Z,96603.66
2023-03-06T14:14:58.561Z,96597.58
2023-03-06T14:17:33.404Z,96595.30
2023-03-06T14:20:13.448Z,96584.80
2023-03-06T14:26:54.547Z,96577.27
2023-03-06T14:29:26.376Z,96560.19
2023-03-06T14:31:57.985Z,96572.21
2023-03-06T14:35:06.696Z,96573.42
2023-03-06T14:37:37.592Z,96573.73
2023-03-06T14:40:11.451Z,96577.96
2023-03-06T14:42:39.928Z,96575.75
2023-03-06T14:45:17.160Z,96573.48
2023-03-06T14:47:53.989Z,96571.77
2023-03-06T14:50:27.819Z,96570.73
2023-03-06T14:53:01.082Z,96564.73
2023-03-06T14:55:33.457Z,96563.36
2023-03-06T14:58:04.289Z,96567.75
2023-03-06T15:00:42.266Z,96565.38
2023-03-06T15:03:20.903Z,96564.14
2023-03-06T15:05:51.180Z,96574.45
2023-03-06T15:13:26.465Z,96568.69
2023-03-06T15:16:22.376Z,96582.52
2023-03-06T15:19:20.069Z,96584.69
2023-03-06T15:21:51.950Z,96596.80
2023-03-06T15:24:38.360Z,96595.64
2023-03-06T15:27:16.590Z,96594.02
2023-03-06T15:29:44.647Z,96592.22
2023-03-06T15:32:15.794Z,96595.91
2023-03-06T15:34:43.808Z,96600.02
2023-03-06T15:37:28.962Z,96589.60
2023-03-06T15:40:09.555Z,96592.30
2023-03-06T15:42:37.853Z,96587.96
2023-03-06T15:45:35.093Z,96584.61
2023-03-06T15:48:17.223Z,96584.75
2023-03-06T15:50:45.377Z,96582.46
2023-03-06T15:53:13.373Z,96583.27
2023-03-06T15:55:41.361Z,96586.13
2023-03-06T15:58:15.276Z,96585.27
2023-03-06T16:00:44.134Z,96589.48
2023-03-06T16:03:13.625Z,96589.48
2023-03-06T16:05:41.793Z,96594.89
2023-03-06T16:08:15.301Z,96598.50
2023-03-06T16:10:46.914Z,96608.25
2023-03-06T16:14:06.475Z,96619.48
2023-03-06T16:16:37.721Z,96619.56
2023-03-06T16:19:26.715Z,96626.73
2023-03-06T16:22:00.258Z,96626.66
2023-03-06T16:24:29.340Z,96620.22
2023-03-06T16:27:01.687Z,96616.81
2023-03-06T16:29:30.642Z,96608.80
2023-03-06T16:32:00.912Z,96604.63
2023-03-06T16:35:08.291Z,96601.30
2023-03-06T16:37:36.774Z,96601.68
2023-03-06T16:40:07.986Z,96598.66
2023-03-06T16:42:39.548Z,96596.67
2023-03-06T16:45:08.438Z,96595.38
2023-03-06T16:47:45.541Z,96588.11
2023-03-06T16:50:25.962Z,96593.09
2023-03-06T16:52:56.497Z,96598.18
2023-03-06T16:55:27.040Z,96598.50
2023-03-06T17:02:41.572Z,96599.87
2023-03-06T17:05:12.113Z,96599.35
2023-03-06T17:07:41.236Z,96601.27
2023-03-06T17:14:20.245Z,96601.59
2023-03-06T17:16:48.240Z,96600.04
2023-03-06T17:19:16.376Z,96593.78
2023-03-06T17:21:44.410Z,96597.13
2023-03-06T17:24:12.366Z,96597.02
2023-03-06T17:26:40.363Z,96599.16
2023-03-06T17:29:09.706Z,96599.90
2023-03-06T17:31:38.103Z,96601.90
2023-03-06T17:34:06.468Z,96601.86
2023-03-06T17:36:34.839Z,96603.25
2023-03-06T17:39:04.134Z,96600.27
2023-03-06T17:41:34.222Z,96603.88
2023-03-06T17:44:02.284Z,96600.52
2023-03-06T17:46:32.270Z,96599.27
2023-03-06T17:49:00.609Z,96596.27
2023-03-06T17:51:28.790Z,96598.56
2023-03-06T17:53:57.641Z,96592.45
2023-03-06T17:56:26.733Z,96594.38
2023-03-06T17:58:55.552Z,96589.50
2023-03-06T18:01:27.591Z,96598.77
2023-03-06T18:03:56.925Z,96593.27
2023-03-06T18:06:27.742Z,96595.97
2023-03-06T18:08:56.359Z,96598.36
2023-03-06T18:11:24.773Z,96602.13
2023-03-06T18:13:53.008Z,96601.98
2023-03-06T18:16:23.307Z,96602.60
2023-03-06T18:18:53.518Z,96600.98
2023-03-06T18:21:23.331Z,96600.70
2023-03-06T18:23:51.473Z,96599.17
2023-03-06T18:26:25.657Z,96599.00
2023-03-06T18:28:56.428Z,96595.67
2023-03-06T18:31:28.341Z,96599.59
2023-03-06T18:33:59.266Z,96600.23
2023-03-06T18:36:31.331Z,96599.48
2023-03-06T18:39:01.062Z,96608.19
2023-03-06T18:41:30.444Z,96610.20
2023-03-06T18:44:00.793Z,96606.48
2023-03-06T18:46:38.286Z,96605.64
2023-03-06T18:49:07.765Z,96606.48
2023-03-06T18:51:35.682Z,96603.89
2023-03-06T18:54:05.328Z,96600.13
2023-03-06T18:56:34.191Z,96598.85
2023-03-06T18:59:05.580Z,96595.98
2023-03-06T19:01:34.341Z,96596.63
2023-03-06T19:04:04.613Z,96594.72
2023-03-06T19:06:32.975Z,96593.85
2023-03-06T19:09:02.445Z,96593.70
2023-03-06T19:11:32.587Z,96589.84
2023-03-06T19:14:00.692Z,96595.09
2023-03-06T19:16:31.688Z,96589.90
2023-03-06T19:18:59.685Z,96591.85
2023-03-06T19:21:28.354Z,96590.85
2023-03-06T19:23:57.434Z,96591.58
2023-03-06T19:26:25.531Z,96591.42
2023-03-06T19:28:53.761Z,96587.76
2023-03-06T19:31:25.196Z,96591.10
2023-03-06T19:33:54.921Z,96588.55
2023-03-06T19:36:27.854Z,96589.55
2023-03-06T19:38:57.340Z,96587.34
2023-03-06T19:41:26.652Z,96588.98
2023-03-06T19:43:58.435Z,96583.79
2023-03-06T19:46:27.711Z,96586.02
2023-03-06T19:48:58.055Z,96584.64
2023-03-06T19:51:27.267Z,96583.88
2023-03-06T19:53:56.418Z,96584.48
2023-03-06T19:56:29.418Z,96580.02
2023-03-06T19:58:57.899Z,96574.97
2023-03-06T20:01:27.526Z,96573.75
2023-03-06T20:03:59.455Z,96575.81
2023-03-06T20:06:30.301Z,96574.44
2023-03-06T20:08:58.789Z,96578.59
2023-03-06T20:11:30.247Z,96578.52
2023-03-06T20:14:00.765Z,96577.08
2023-03-06T20:16:32.373Z,96574.63
2023-03-06T20:19:02.603Z,96576.16
2023-03-06T20:21:38.289Z,96576.22
2023-03-06T20:24:08.676Z,96575.84
2023-03-06T20:26:38.809Z,96574.30
2023-03-06T20:29:06.943Z,96574.77
2023-03-06T20:31:35.334Z,96577.24
2023-03-06T20:34:05.056Z,96576.23
2023-03-06T20:36:41.351Z,96575.91
2023-03-06T20:39:13.380Z,96576.50
2023-03-06T20:41:41.363Z,96576.23
2023-03-06T20:44:17.434Z,96576.08
2023-03-06T20:46:46.381Z,96574.17
2023-03-06T20:49:14.884Z,96576.41
2023-03-06T20:51:42.932Z,96578.94
2023-03-06T20:54:13.526Z,96575.65
2023-03-06T20:56:43.377Z,96576.63
2023-03-06T20:59:14.197Z,96575.73
2023-03-06T21:01:44.358Z,96581.84
2023-03-06T21:04:14.538Z,96577.15
2023-03-06T21:06:46.910Z,96576.20
2023-03-06T21:09:18.989Z,96575.46
2023-03-06T21:11:50.777Z,96577.00
2023-03-06T21:14:28.776Z,96577.76
2023-03-06T21:16:57.272Z,96574.99
2023-03-06T21:19:28.723Z,96575.67
2023-03-06T21:22:01.750Z,96577.22
2023-03-06T21:24:39.698Z,96571.33
2023-03-06T21:27:07.614Z,96573.98
2023-03-06T21:29:35.560Z,96571.55
2023-03-06T21:32:03.739Z,96571.45
2023-03-06T21:34:31.763Z,96571.98
2023-03-06T21:36:59.664Z,96571.33
2023-03-06T21:39:27.706Z,96571.92
2023-03-06T21:41:56.532Z,96573.31
2023-03-06T21:44:25.237Z,96569.77
2023-03-06T21:46:56.553Z,96565.16
2023-03-06T21:49:26.635Z,96566.42
2023-03-06T21:51:55.012Z,96563.00
2023-03-06T21:54:23.296Z,96561.66
2023-03-06T21:56:51.348Z,96567.61
2023-03-06T21:59:20.796Z,96563.33
2023-03-06T22:01:49.144Z,96563.31
2023-03-06T22:04:17.814Z,96559.83
2023-03-06T22:06:46.219Z,96554.46
2023-03-06T22:09:17.116Z,96554.23
2023-03-06T22:11:45.690Z,96557.13
2023-03-06T22:14:14.959Z,96558.63
2023-03-06T22:16:42.979Z,96557.78
2023-03-06T22:19:10.880Z,96557.90
2023-03-06T22:21:38.748Z,96558.94
2023-03-06T22:24:06.945Z,96556.09
2023-03-06T22:26:34.931Z,96558.21
2023-03-06T22:29:02.804Z,96551.64
2023-03-06T22:31:30.860Z,96556.52
2023-03-06T22:34:00.512Z,96552.08
2023-03-06T22:36:30.855Z,96554.67
2023-03-06T22:39:01.278Z,96554.04
2023-03-06T22:41:30.183Z,96554.04
2023-03-06T22:44:01.164Z,96552.83
2023-03-06T22:46:30.300Z,96556.05
2023-03-06T22:49:00.047Z,96553.92
2023-03-06T22:51:28.822Z,96549.95
2023-03-06T22:53:56.869Z,96552.02
2023-03-06T22:56:25.299Z,96552.71
2023-03-06T22:58:53.412Z,96551.65
2023-03-06T23:01:25.403Z,96552.75
2023-03-06T23:03:56.483Z,96554.89
2023-03-06T23:06:28.638Z,96554.92
2023-03-06T23:09:06.007Z,96553.56
2023-03-06T23:11:53.044Z,96551.60
2023-03-06T23:14:40.004Z,96551.44
2023-03-06T23:17:26.924Z,96550.27
2023-03-06T23:20:14.217Z,96553.60
2023-03-06T23:23:00.475Z,96547.83
2023-03-06T23:25:44.177Z,96547.45
2023-03-06T23:28:12.384Z,96544.20
2023-03-06T23:30:41.731Z,96546.48
2023-03-06T23:33:10.584Z,96548.92
2023-03-06T23:35:41.511Z,96545.95
2023-03-06T23:38:09.425Z,96546.80
2023-03-06T23:40:40.523Z,96548.13
2023-03-06T23:43:08.498Z,96551.08
2023-03-06T23:45:37.164Z,96552.30
2023-03-06T23:48:08.058Z,96551.13
2023-03-06T23:50:39.800Z,96553.77
2023-03-06T23:53:07.693Z,96551.52
2023-03-06T23:55:35.564Z,96555.48
2023-03-06T23:58:03.576Z,96549.66
